Time;durP1;ratioP1;P1;durP2;ratioP2;P2;SDS_P1;SDS_P2;PMS_P1;PMS_P2;Temp;Humidity;BMP_temperature;BMP_pressure;BME280_temperature;BME280_humidity;BME280_pressure;Samples;Min_cycle;Max_cycle;Signal;HPM_P1;HPM_P2
2023/06/16 00:00:59;;;;;;;15.10;8.40;;;;;;;-128.00;-1.00;-1.00;18472;295;7507411;-31
2023/06/16 00:03:25;;;;;;;7.60;6.80;;;;;;;-128.00;-1.00;-1.00;18448;295;7506312;-31
2023/06/16 00:05:51;;;;;;;8.00;7.10;;;;;;;-128.00;-1.00;-1.00;18476;339;7506333;-35
2023/06/16 00:08:17;;;;;;;8.80;7.30;;;;;;;-128.00;-1.00;-1.00;18471;319;7504815;-34
2023/06/16 00:10:43;;;;;;;12.90;8.80;;;;;;;-128.00;-1.00;-1.00;18891;294;7504554;-33
2023/06/16 00:13:09;;;;;;;9.60;6.10;;;;;;;-128.00;-1.00;-1.00;18868;296;7504565;-34
2023/06/16 00:15:35;;;;;;;9.20;7.00;;;;;;;-128.00;-1.00;-1.00;18517;310;7504337;-31
2023/06/16 00:18:01;;;;;;;7.80;6.20;;;;;;;-128.00;-1.00;-1.00;18461;294;7504685;-31
2023/06/16 00:20:27;;;;;;;16.20;9.00;;;;;;;-128.00;-1.00;-1.00;18470;318;7504993;-31
2023/06/16 00:22:54;;;;;;;7.00;5.70;;;;;;;-128.00;-1.00;-1.00;18476;339;7506066;-30
2023/06/16 00:25:20;;;;;;;5.00;4.30;;;;;;;-128.00;-1.00;-1.00;18463;294;7506455;-34
2023/06/16 00:27:46;;;;;;;11.00;8.10;;;;;;;-128.00;-1.00;-1.00;18480;295;7506363;-35
2023/06/16 00:30:12;;;;;;;5.50;5.00;;;;;;;-128.00;-1.00;-1.00;18441;294;7505988;-31
2023/06/16 00:32:38;;;;;;;7.20;6.50;;;;;;;-128.00;-1.00;-1.00;18461;335;7506519;-31
2023/06/16 00:35:05;;;;;;;16.70;10.80;;;;;;;-128.00;-1.00;-1.00;18879;319;7504903;-34
2023/06/16 01:18:14;;;;;;;7.80;6.90;;;;;;;-100.75;19.20;19859.18;19586;294;8046721;-35
2023/06/16 01:20:51;;;;;;;12.20;9.80;;;;;;;-128.00;-1.00;-1.00;18111;283;7504671;-31
2023/06/16 01:23:37;;;;;;;11.10;7.90;;;;;;;-128.00;-1.00;-1.00;18462;293;7504136;-31
2023/06/16 01:26:03;;;;;;;9.00;7.40;;;;;;;-128.00;-1.00;-1.00;18466;293;7506253;-34
2023/06/16 01:28:30;;;;;;;9.60;6.80;;;;;;;-128.00;-1.00;-1.00;18494;293;7506019;-31
2023/06/16 01:30:56;;;;;;;6.80;5.90;;;;;;;-128.00;-1.00;-1.00;18499;293;7504509;-34
2023/06/16 01:33:22;;;;;;;6.80;6.10;;;;;;;-128.00;-1.00;-1.00;18489;293;7504962;-31
2023/06/16 01:35:48;;;;;;;7.60;6.90;;;;;;;-128.00;-1.00;-1.00;18493;293;7505811;-35
2023/06/16 01:38:14;;;;;;;13.60;7.50;;;;;;;-128.00;-1.00;-1.00;18505;286;7504221;-31
2023/06/16 01:40:40;;;;;;;9.30;7.00;;;;;;;-128.00;-1.00;-1.00;18478;286;7505810;-35
2023/06/16 01:43:06;;;;;;;10.20;9.20;;;;;;;-128.00;-1.00;-1.00;18476;293;7505957;-34
2023/06/16 01:45:32;;;;;;;14.50;8.60;;;;;;;-128.00;-1.00;-1.00;18878;293;7505301;-35
2023/06/16 01:47:59;;;;;;;12.00;10.00;;;;;;;-128.00;-1.00;-1.00;18874;293;7505449;-35
2023/06/16 01:50:25;;;;;;;14.90;9.00;;;;;;;-128.00;-1.00;-1.00;18496;293;7504834;-34
2023/06/16 01:52:50;;;;;;;9.70;8.70;;;;;;;-128.00;-1.00;-1.00;18526;294;7504524;-31
2023/06/16 01:55:17;;;;;;;12.90;8.90;;;;;;;-128.00;-1.00;-1.00;18898;293;7504625;-34
2023/06/16 01:57:43;;;;;;;11.70;9.00;;;;;;;-128.00;-1.00;-1.00;18901;294;7505383;-32
2023/06/16 02:00:14;;;;;;;17.90;9.60;;;;;;;-128.00;-1.00;-1.00;18855;294;7505793;-31
2023/06/16 02:02:42;;;;;;;9.50;8.50;;;;;;;-128.00;-1.00;-1.00;18474;294;7504158;-31
2023/06/16 02:05:09;;;;;;;8.40;7.60;;;;;;;-128.00;-1.00;-1.00;18460;293;7504421;-31
2023/06/16 02:07:35;;;;;;;9.10;8.20;;;;;;;-128.00;-1.00;-1.00;18481;339;7505007;-31
2023/06/16 02:10:02;;;;;;;5.60;5.10;;;;;;;-128.00;-1.00;-1.00;18472;293;7506253;-34
2023/06/16 02:12:28;;;;;;;12.70;7.40;;;;;;;-128.00;-1.00;-1.00;18471;334;7506523;-34
2023/06/16 02:14:54;;;;;;;6.20;5.60;;;;;;;-128.00;-1.00;-1.00;18481;293;7504830;-34
2023/06/16 02:17:22;;;;;;;5.30;4.80;;;;;;;-128.00;-1.00;-1.00;18481;293;7504564;-31
2023/06/16 02:19:51;;;;;;;8.20;7.40;;;;;;;-128.00;-1.00;-1.00;18482;294;7504978;-34
2023/06/16 02:22:17;;;;;;;13.50;5.30;;;;;;;-128.00;-1.00;-1.00;18463;286;7506044;-37
2023/06/16 02:24:43;;;;;;;8.10;6.80;;;;;;;-128.00;-1.00;-1.00;18888;294;7505885;-35
2023/06/16 02:27:09;;;;;;;10.20;7.00;;;;;;;-128.00;-1.00;-1.00;18855;294;7504185;-30
2023/06/16 02:29:35;;;;;;;9.30;6.40;;;;;;;-128.00;-1.00;-1.00;18853;286;7504813;-31
2023/06/16 02:32:02;;;;;;;9.90;7.20;;;;;;;-128.00;-1.00;-1.00;18888;294;7505241;-31
2023/06/16 02:34:28;;;;;;;7.20;6.50;;;;;;;-128.00;-1.00;-1.00;18898;294;7504267;-31
2023/06/16 02:36:54;;;;;;;6.50;5.90;;;;;;;-128.00;-1.00;-1.00;18925;294;7504563;-35
2023/06/16 02:39:21;;;;;;;9.50;7.20;;;;;;;-128.00;-1.00;-1.00;18870;286;7504873;-34
2023/06/16 02:41:47;;;;;;;7.80;6.50;;;;;;;-128.00;-1.00;-1.00;18479;294;7505213;-30
2023/06/16 02:44:13;;;;;;;8.40;7.10;;;;;;;-128.00;-1.00;-1.00;18485;294;7504948;-34
2023/06/16 02:46:39;;;;;;;13.50;7.70;;;;;;;-128.00;-1.00;-1.00;18926;294;7504364;-30
2023/06/16 02:49:06;;;;;;;11.60;9.30;;;;;;;-128.00;-1.00;-1.00;18879;329;7505909;-30
2023/06/16 02:51:31;;;;;;;14.20;9.30;;;;;;;-128.00;-1.00;-1.00;18500;294;7506349;-33
2023/06/16 02:53:59;;;;;;;8.10;7.30;;;;;;;-128.00;-1.00;-1.00;18489;294;7504530;-30
2023/06/16 02:56:25;;;;;;;8.90;7.40;;;;;;;-128.00;-1.00;-1.00;18519;301;7504764;-30
2023/06/16 02:58:50;;;;;;;9.00;7.30;;;;;;;-128.00;-1.00;-1.00;18475;294;7504730;-34
2023/06/16 03:01:16;;;;;;;8.60;7.90;;;;;;;-128.00;-1.00;-1.00;18462;334;7506190;-34
2023/06/16 03:03:48;;;;;;;5.20;4.60;;;;;;;-128.00;-1.00;-1.00;18502;294;7506189;-30
2023/06/16 03:06:16;;;;;;;5.80;4.80;;;;;;;-128.00;-1.00;-1.00;18484;333;7505117;-30
2023/06/16 03:08:42;;;;;;;7.10;6.30;;;;;;;-128.00;-1.00;-1.00;18473;294;7504245;-34
2023/06/16 03:11:07;;;;;;;14.90;8.00;;;;;;;-128.00;-1.00;-1.00;18455;294;7504359;-34
2023/06/16 03:13:33;;;;;;;9.40;8.00;;;;;;;-128.00;-1.00;-1.00;18439;346;7504598;-33
2023/06/16 03:16:00;;;;;;;13.00;8.40;;;;;;;-128.00;-1.00;-1.00;18451;334;7504483;-34
2023/06/16 03:18:27;;;;;;;16.40;8.70;;;;;;;-128.00;-1.00;-1.00;18466;294;7506250;-34
2023/06/16 03:20:53;;;;;;;10.00;7.50;;;;;;;-128.00;-1.00;-1.00;18468;294;7506474;-34
2023/06/16 03:23:19;;;;;;;6.30;5.50;;;;;;;-128.00;-1.00;-1.00;18460;295;7504954;-30
2023/06/16 03:25:44;;;;;;;8.90;7.70;;;;;;;-128.00;-1.00;-1.00;18462;282;7504476;-30
2023/06/16 03:28:11;;;;;;;7.90;6.10;;;;;;;-128.00;-1.00;-1.00;18472;294;7505967;-30
2023/06/16 03:30:37;;;;;;;16.60;10.30;;;;;;;-128.00;-1.00;-1.00;18871;294;7505658;-34
2023/06/16 03:33:03;;;;;;;8.80;7.90;;;;;;;-128.00;-1.00;-1.00;18492;338;7504749;-34
2023/06/16 03:35:29;;;;;;;9.80;8.20;;;;;;;-128.00;-1.00;-1.00;18883;294;7505087;-36
2023/06/16 03:37:55;;;;;;;9.50;8.10;;;;;;;-128.00;-1.00;-1.00;18901;294;7504424;-36
2023/06/16 03:40:22;;;;;;;10.70;9.60;;;;;;;-128.00;-1.00;-1.00;18918;346;7506757;-34
2023/06/16 03:42:48;;;;;;;16.30;10.40;;;;;;;-128.00;-1.00;-1.00;18861;294;7504382;-35
2023/06/16 03:45:15;;;;;;;15.40;10.30;;;;;;;-128.00;-1.00;-1.00;18871;294;7505283;-35
2023/06/16 03:47:41;;;;;;;12.20;10.70;;;;;;;-128.00;-1.00;-1.00;18885;294;7504462;-34
2023/06/16 03:50:08;;;;;;;12.10;10.30;;;;;;;-128.00;-1.00;-1.00;18910;294;7505864;-30
2023/06/16 03:52:33;;;;;;;9.60;8.40;;;;;;;-128.00;-1.00;-1.00;18468;294;7506031;-31
2023/06/16 03:55:00;;;;;;;11.80;9.50;;;;;;;-128.00;-1.00;-1.00;18870;294;7504509;-31
2023/06/16 03:57:26;;;;;;;17.90;10.80;;;;;;;-128.00;-1.00;-1.00;18881;294;7504623;-34
2023/06/16 03:59:52;;;;;;;11.20;9.80;;;;;;;-128.00;-1.00;-1.00;18852;294;7505243;-32
2023/06/16 04:02:18;;;;;;;17.10;10.80;;;;;;;-128.00;-1.00;-1.00;18896;334;7504799;-35
2023/06/16 04:04:47;;;;;;;12.00;10.60;;;;;;;-128.00;-1.00;-1.00;18884;294;7504195;-31
2023/06/16 04:07:12;;;;;;;21.60;9.90;;;;;;;-128.00;-1.00;-1.00;18470;294;7505602;-31
2023/06/16 04:09:38;;;;;;;10.70;9.10;;;;;;;-128.00;-1.00;-1.00;18489;294;7504364;-35
2023/06/16 04:12:05;;;;;;;12.90;10.80;;;;;;;-128.00;-1.00;-1.00;18480;294;7506077;-31
2023/06/16 04:14:30;;;;;;;15.70;8.60;;;;;;;-128.00;-1.00;-1.00;18462;294;7505331;-34
2023/06/16 04:16:56;;;;;;;9.60;8.70;;;;;;;-128.00;-1.00;-1.00;18865;294;7505983;-35
2023/06/16 04:19:26;;;;;;;10.30;7.90;;;;;;;-128.00;-1.00;-1.00;18488;294;7505825;-31
2023/06/16 04:21:52;;;;;;;8.70;7.90;;;;;;;-128.00;-1.00;-1.00;18469;294;7504670;-35
2023/06/16 04:24:18;;;;;;;8.70;7.90;;;;;;;-128.00;-1.00;-1.00;18462;294;7504124;-32
2023/06/16 04:26:43;;;;;;;9.00;8.10;;;;;;;-128.00;-1.00;-1.00;18469;294;7505180;-32
2023/06/16 04:29:14;;;;;;;14.80;8.80;;;;;;;-128.00;-1.00;-1.00;18480;317;7506370;-35
2023/06/16 04:31:42;;;;;;;9.90;8.90;;;;;;;-128.00;-1.00;-1.00;18487;294;7504603;-36
2023/06/16 04:34:10;;;;;;;10.70;8.00;;;;;;;-128.00;-1.00;-1.00;18473;293;7506313;-32
2023/06/16 04:36:36;;;;;;;10.70;7.90;;;;;;;-128.00;-1.00;-1.00;18481;335;7504142;-33
2023/06/16 04:39:03;;;;;;;7.70;7.10;;;;;;;-128.00;-1.00;-1.00;18516;294;7504800;-43
2023/06/16 04:41:28;;;;;;;6.90;6.30;;;;;;;-128.00;-1.00;-1.00;18490;294;7504250;-36
2023/06/16 04:43:54;;;;;;;9.40;8.10;;;;;;;-128.00;-1.00;-1.00;18500;294;7505639;-36
2023/06/16 04:46:20;;;;;;;9.00;8.00;;;;;;;-128.00;-1.00;-1.00;18497;286;7505254;-33
2023/06/16 04:48:46;;;;;;;10.60;7.00;;;;;;;-128.00;-1.00;-1.00;18508;294;7504172;-37
2023/06/16 04:51:11;;;;;;;8.30;7.60;;;;;;;-128.00;-1.00;-1.00;18501;294;7505999;-36
2023/06/16 04:53:37;;;;;;;13.10;6.00;;;;;;;-128.00;-1.00;-1.00;18475;294;7504628;-32
2023/06/16 04:56:03;;;;;;;7.50;6.80;;;;;;;-128.00;-1.00;-1.00;18512;338;7506014;-36
2023/06/16 04:58:30;;;;;;;8.80;7.00;;;;;;;-128.00;-1.00;-1.00;18869;294;7506215;-35
2023/06/16 05:00:55;;;;;;;20.20;6.80;;;;;;;-128.00;-1.00;-1.00;18502;334;7504529;-36
2023/06/16 05:03:21;;;;;;;6.90;5.20;;;;;;;-128.00;-1.00;-1.00;18499;282;7504751;-32
2023/06/16 05:05:47;;;;;;;11.50;7.00;;;;;;;-128.00;-1.00;-1.00;18881;294;7505815;-32
2023/06/16 05:08:13;;;;;;;9.40;6.20;;;;;;;-128.00;-1.00;-1.00;18915;298;7504644;-35
2023/06/16 05:10:40;;;;;;;9.90;6.50;;;;;;;-128.00;-1.00;-1.00;18887;334;7505944;-36
2023/06/16 05:13:06;;;;;;;6.70;5.90;;;;;;;-128.00;-1.00;-1.00;18509;317;7504666;-32
2023/06/16 05:15:32;;;;;;;11.20;6.80;;;;;;;-128.00;-1.00;-1.00;18513;294;7504961;-35
2023/06/16 05:17:57;;;;;;;7.40;5.50;;;;;;;-128.00;-1.00;-1.00;18498;294;7504346;-32
2023/06/16 05:20:23;;;;;;;6.40;5.80;;;;;;;-128.00;-1.00;-1.00;18506;294;7504869;-36
2023/06/16 05:22:49;;;;;;;8.00;7.20;;;;;;;-128.00;-1.00;-1.00;18906;294;7504394;-33
2023/06/16 05:25:15;;;;;;;9.30;6.30;;;;;;;-128.00;-1.00;-1.00;18939;294;7504156;-33
2023/06/16 05:27:42;;;;;;;14.80;7.00;;;;;;;-128.00;-1.00;-1.00;18896;305;7504886;-32
2023/06/16 05:30:08;;;;;;;7.70;6.10;;;;;;;-128.00;-1.00;-1.00;18883;334;7504695;-32
2023/06/16 05:32:34;;;;;;;6.70;5.60;;;;;;;-128.00;-1.00;-1.00;18482;317;7505597;-35
2023/06/16 05:35:00;;;;;;;9.60;6.70;;;;;;;-128.00;-1.00;-1.00;18461;295;7504726;-31
2023/06/16 05:37:28;;;;;;;8.60;7.50;;;;;;;-128.00;-1.00;-1.00;18492;294;7504499;-34
2023/06/16 05:39:53;;;;;;;6.40;5.80;;;;;;;-128.00;-1.00;-1.00;18477;295;7504656;-35
2023/06/16 05:42:19;;;;;;;16.30;6.10;;;;;;;-128.00;-1.00;-1.00;18496;294;7504378;-32
2023/06/16 05:44:45;;;;;;;6.50;5.80;;;;;;;-128.00;-1.00;-1.00;18501;294;7505056;-31
2023/06/16 05:47:11;;;;;;;21.20;5.80;;;;;;;-128.00;-1.00;-1.00;18509;334;7504450;-38
2023/06/16 05:49:37;;;;;;;19.00;5.90;;;;;;;-128.00;-1.00;-1.00;18513;294;7504296;-32
2023/06/16 05:52:04;;;;;;;5.80;5.10;;;;;;;-128.00;-1.00;-1.00;18488;305;7504856;-36
2023/06/16 05:54:30;;;;;;;7.90;6.60;;;;;;;-128.00;-1.00;-1.00;18456;294;7506262;-36
2023/06/16 05:56:56;;;;;;;5.80;4.40;;;;;;;-128.00;-1.00;-1.00;18493;346;7504184;-33
2023/06/16 05:59:22;;;;;;;5.20;4.70;;;;;;;-128.00;-1.00;-1.00;18489;294;7506813;-33
2023/06/16 06:01:49;;;;;;;6.10;5.40;;;;;;;-128.00;-1.00;-1.00;18465;294;7506205;-33
2023/06/16 06:04:15;;;;;;;7.50;6.70;;;;;;;-128.00;-1.00;-1.00;18468;294;7506669;-36
2023/06/16 06:06:41;;;;;;;6.60;6.00;;;;;;;-128.00;-1.00;-1.00;18479;346;7504589;-36
2023/06/16 06:09:06;;;;;;;4.40;4.00;;;;;;;-128.00;-1.00;-1.00;18475;294;7505116;-32
2023/06/16 06:11:32;;;;;;;8.10;6.90;;;;;;;-128.00;-1.00;-1.00;18869;333;7504942;-36
2023/06/16 06:13:58;;;;;;;9.90;5.80;;;;;;;-128.00;-1.00;-1.00;18891;294;7505594;-36
2023/06/16 06:16:27;;;;;;;10.10;5.70;;;;;;;-128.00;-1.00;-1.00;18908;302;7504543;-32
2023/06/16 06:18:53;;;;;;;6.90;6.30;;;;;;;-128.00;-1.00;-1.00;18472;294;7504950;-36
2023/06/16 06:21:19;;;;;;;7.10;5.30;;;;;;;-128.00;-1.00;-1.00;18490;299;7504367;-37
2023/06/16 06:23:44;;;;;;;7.60;5.50;;;;;;;-128.00;-1.00;-1.00;18464;294;7505343;-35
2023/06/16 06:26:11;;;;;;;5.90;5.10;;;;;;;-128.00;-1.00;-1.00;18492;294;7504871;-36
2023/06/16 06:28:36;;;;;;;6.90;6.20;;;;;;;-128.00;-1.00;-1.00;18462;294;7504280;-36
2023/06/16 06:31:02;;;;;;;8.30;6.40;;;;;;;-128.00;-1.00;-1.00;18880;317;7504570;-35
2023/06/16 06:33:28;;;;;;;6.90;6.30;;;;;;;-128.00;-1.00;-1.00;18877;294;7504751;-35
2023/06/16 06:35:55;;;;;;;6.10;5.50;;;;;;;-128.00;-1.00;-1.00;18875;295;7505813;-31
2023/06/16 06:38:21;;;;;;;10.60;6.90;;;;;;;-128.00;-1.00;-1.00;18892;301;7504736;-32
2023/06/16 06:40:47;;;;;;;15.60;7.30;;;;;;;-128.00;-1.00;-1.00;18865;294;7504728;-35
2023/06/16 06:43:13;;;;;;;7.20;6.00;;;;;;;-128.00;-1.00;-1.00;18920;294;7505254;-31
2023/06/16 06:45:39;;;;;;;7.20;5.40;;;;;;;-128.00;-1.00;-1.00;18877;307;7505394;-32
2023/06/16 06:48:06;;;;;;;5.70;5.10;;;;;;;-128.00;-1.00;-1.00;18469;294;7506622;-35
2023/06/16 06:50:31;;;;;;;4.40;4.00;;;;;;;-128.00;-1.00;-1.00;18459;317;7505260;-37
2023/06/16 06:52:57;;;;;;;9.40;3.70;;;;;;;-128.00;-1.00;-1.00;18471;294;7505792;-32
2023/06/16 06:55:23;;;;;;;4.80;4.30;;;;;;;-128.00;-1.00;-1.00;18891;294;7504586;-32
2023/06/16 06:57:50;;;;;;;7.90;5.40;;;;;;;-128.00;-1.00;-1.00;18887;294;7504704;-31
2023/06/16 07:00:17;;;;;;;6.30;5.70;;;;;;;-128.00;-1.00;-1.00;18487;294;7506104;-31
2023/06/16 07:02:42;;;;;;;4.50;4.10;;;;;;;-128.00;-1.00;-1.00;18469;294;7504722;-35
2023/06/16 07:05:08;;;;;;;3.30;3.00;;;;;;;-128.00;-1.00;-1.00;18465;294;7506000;-32
2023/06/16 07:07:35;;;;;;;2.30;1.90;;;;;;;-128.00;-1.00;-1.00;18468;288;7504203;-36
2023/06/16 07:10:01;;;;;;;6.20;3.80;;;;;;;-128.00;-1.00;-1.00;18483;294;7506739;-32
2023/06/16 07:12:26;;;;;;;5.00;4.50;;;;;;;-128.00;-1.00;-1.00;18510;294;7506027;-32
2023/06/16 07:14:52;;;;;;;2.90;2.70;;;;;;;-128.00;-1.00;-1.00;18461;346;7504680;-36
2023/06/16 07:17:18;;;;;;;4.40;3.70;;;;;;;-128.00;-1.00;-1.00;18512;294;7504373;-32
2023/06/16 07:19:49;;;;;;;;;;;;;;;-128.00;-1.00;-1.00;18469;334;7505056;-33
2023/06/16 07:22:16;;;;;;;9.80;5.40;;;;;;;-128.00;-1.00;-1.00;18871;294;7504661;-33
2023/06/16 07:24:41;;;;;;;3.80;3.40;;;;;;;-128.00;-1.00;-1.00;18464;294;7504336;-37
2023/06/16 07:27:08;;;;;;;8.90;4.00;;;;;;;-128.00;-1.00;-1.00;18473;294;7506434;-37
2023/06/16 07:29:34;;;;;;;3.30;3.00;;;;;;;-128.00;-1.00;-1.00;18470;294;7504618;-33
2023/06/16 07:31:59;;;;;;;4.10;3.60;;;;;;;-128.00;-1.00;-1.00;18486;309;7504829;-37
2023/06/16 07:34:26;;;;;;;4.90;4.40;;;;;;;-128.00;-1.00;-1.00;18874;346;7505392;-33
2023/06/16 07:36:52;;;;;;;7.30;3.40;;;;;;;-128.00;-1.00;-1.00;18895;294;7505396;-33
2023/06/16 07:39:18;;;;;;;6.80;3.80;;;;;;;-128.00;-1.00;-1.00;18888;294;7505769;-32
2023/06/16 07:41:44;;;;;;;4.40;3.50;;;;;;;-128.00;-1.00;-1.00;18906;294;7504688;-35
2023/06/16 07:44:10;;;;;;;5.40;4.30;;;;;;;-128.00;-1.00;-1.00;18867;294;7504379;-33
2023/06/16 07:46:36;;;;;;;6.20;3.60;;;;;;;-128.00;-1.00;-1.00;18860;293;7506147;-34
2023/06/16 07:49:03;;;;;;;4.30;3.90;;;;;;;-128.00;-1.00;-1.00;18866;294;7505553;-32
2023/06/16 07:51:29;;;;;;;11.90;5.10;;;;;;;-128.00;-1.00;-1.00;18902;294;7505374;-36
2023/06/16 07:53:55;;;;;;;4.40;3.90;;;;;;;-128.00;-1.00;-1.00;18876;294;7504695;-33
2023/06/16 07:56:21;;;;;;;4.80;3.60;;;;;;;-128.00;-1.00;-1.00;18878;294;7505017;-36
2023/06/16 07:58:47;;;;;;;3.80;3.00;;;;;;;-128.00;-1.00;-1.00;18888;294;7504652;-36
2023/06/16 08:01:13;;;;;;;3.40;2.50;;;;;;;-128.00;-1.00;-1.00;18891;294;7504976;-32
2023/06/16 08:03:40;;;;;;;3.20;2.90;;;;;;;-128.00;-1.00;-1.00;18872;294;7504212;-36
2023/06/16 08:06:06;;;;;;;9.70;3.70;;;;;;;-128.00;-1.00;-1.00;18887;294;7504725;-35
2023/06/16 08:08:32;;;;;;;4.00;3.50;;;;;;;-128.00;-1.00;-1.00;18866;286;7506026;-32
2023/06/16 08:10:59;;;;;;;12.60;3.80;;;;;;;-128.00;-1.00;-1.00;18885;294;7504471;-32
2023/06/16 08:13:25;;;;;;;7.90;3.30;;;;;;;-128.00;-1.00;-1.00;18888;294;7505825;-32
2023/06/16 08:15:51;;;;;;;4.70;3.20;;;;;;;-128.00;-1.00;-1.00;18514;294;7504993;-32
2023/06/16 08:18:18;;;;;;;4.10;2.60;;;;;;;-128.00;-1.00;-1.00;18848;346;7504746;-32
2023/06/16 08:20:47;;;;;;;5.80;2.60;;;;;;;-128.00;-1.00;-1.00;18513;294;7506514;-34
2023/06/16 08:23:13;;;;;;;7.50;2.90;;;;;;;-128.00;-1.00;-1.00;18496;294;7504419;-32
2023/06/16 08:25:39;;;;;;;2.80;1.70;;;;;;;-128.00;-1.00;-1.00;18486;346;7504424;-32
2023/06/16 08:28:07;;;;;;;3.40;2.30;;;;;;;-128.00;-1.00;-1.00;18482;294;7504998;-36
2023/06/16 08:30:33;;;;;;;2.70;2.50;;;;;;;-128.00;-1.00;-1.00;18485;294;7504750;-32
2023/06/16 08:33:00;;;;;;;4.40;2.70;;;;;;;-128.00;-1.00;-1.00;18479;294;7504678;-35
2023/06/16 08:35:25;;;;;;;3.60;3.00;;;;;;;-128.00;-1.00;-1.00;18493;294;7506130;-31
2023/06/16 08:37:52;;;;;;;3.90;3.00;;;;;;;-128.00;-1.00;-1.00;18889;294;7504346;-36
2023/06/16 08:40:18;;;;;;;2.90;2.60;;;;;;;-128.00;-1.00;-1.00;18878;294;7505030;-32
2023/06/16 08:42:46;;;;;;;4.20;3.20;;;;;;;-128.00;-1.00;-1.00;18873;294;7504323;-36
2023/06/16 08:45:12;;;;;;;3.90;2.10;;;;;;;-128.00;-1.00;-1.00;18486;294;7504724;-36
2023/06/16 08:47:38;;;;;;;2.20;1.90;;;;;;;-128.00;-1.00;-1.00;18479;295;7504550;-32
2023/06/16 08:50:07;;;;;;;4.10;2.80;;;;;;;-128.00;-1.00;-1.00;18468;294;7506308;-36
2023/06/16 08:52:40;;;;;;;2.50;2.30;;;;;;;-128.00;-1.00;-1.00;18494;309;7505076;-32
2023/06/16 08:55:08;;;;;;;3.70;3.20;;;;;;;-128.00;-1.00;-1.00;18486;294;7506669;-32
2023/06/16 08:57:36;;;;;;;15.00;3.60;;;;;;;-128.00;-1.00;-1.00;18471;294;7504435;-36
2023/06/16 09:00:02;;;;;;;2.00;1.80;;;;;;;-128.00;-1.00;-1.00;18501;294;7504343;-32
2023/06/16 09:02:29;;;;;;;2.80;2.60;;;;;;;-128.00;-1.00;-1.00;18526;294;7504627;-33
2023/06/16 09:04:56;;;;;;;3.40;3.10;;;;;;;-128.00;-1.00;-1.00;18503;294;7506232;-36
2023/06/16 09:07:27;;;;;;;3.20;2.90;;;;;;;-128.00;-1.00;-1.00;18518;294;7505212;-32
2023/06/16 09:09:53;;;;;;;3.00;2.70;;;;;;;-128.00;-1.00;-1.00;18508;294;7505644;-36
2023/06/16 09:12:19;;;;;;;3.70;3.40;;;;;;;-128.00;-1.00;-1.00;18516;294;7504744;-35
2023/06/16 09:14:49;;;;;;;3.30;3.00;;;;;;;-128.00;-1.00;-1.00;18897;294;7505192;-35
2023/06/16 09:17:18;;;;;;;4.00;3.60;;;;;;;-128.00;-1.00;-1.00;18473;294;7504635;-32
2023/06/16 09:19:51;;;;;;;3.40;2.70;;;;;;;-128.00;-1.00;-1.00;18533;294;7504131;-32
2023/06/16 09:22:23;;;;;;;2.80;2.50;;;;;;;-128.00;-1.00;-1.00;17989;318;7504607;-36
2023/06/16 09:25:00;;;;;;;2.70;2.40;;;;;;;-128.00;-1.00;-1.00;18500;294;7504109;-36
2023/06/16 09:27:44;;;;;;;3.50;2.70;;;;;;;-128.00;-1.00;-1.00;18487;305;7506461;-36
2023/06/16 09:30:12;;;;;;;6.80;3.20;;;;;;;-128.00;-1.00;-1.00;18486;302;7504953;-32
2023/06/16 09:32:39;;;;;;;4.30;2.70;;;;;;;-128.00;-1.00;-1.00;18461;346;7504377;-33
2023/06/16 09:35:20;;;;;;;2.80;2.60;;;;;;;-128.00;-1.00;-1.00;18452;294;7504695;-36
2023/06/16 09:37:47;;;;;;;4.70;2.60;;;;;;;-128.00;-1.00;-1.00;18465;309;7504673;-32
2023/06/16 09:40:14;;;;;;;2.60;2.40;;;;;;;-128.00;-1.00;-1.00;18490;346;7505850;-32
2023/06/16 09:42:41;;;;;;;5.40;2.00;;;;;;;-128.00;-1.00;-1.00;18461;294;7504902;-32
2023/06/16 09:45:13;;;;;;;2.30;1.60;;;;;;;-128.00;-1.00;-1.00;18478;294;7505745;-31
2023/06/16 09:47:44;;;;;;;2.80;1.90;;;;;;;-128.00;-1.00;-1.00;18494;294;7505479;-32
2023/06/16 09:50:12;;;;;;;2.00;1.80;;;;;;;-128.00;-1.00;-1.00;18492;338;7505210;-32
2023/06/16 09:52:37;;;;;;;2.30;2.10;;;;;;;-128.00;-1.00;-1.00;18482;295;7505042;-35
2023/06/16 09:55:03;;;;;;;2.60;1.90;;;;;;;-128.00;-1.00;-1.00;18484;338;7504319;-32
2023/06/16 09:57:29;;;;;;;4.10;2.20;;;;;;;-128.00;-1.00;-1.00;18497;296;7505503;-32
2023/06/16 09:59:55;;;;;;;4.80;2.50;;;;;;;-128.00;-1.00;-1.00;18469;305;7504882;-35
2023/06/16 10:02:21;;;;;;;2.40;1.80;;;;;;;-128.00;-1.00;-1.00;18467;294;7506870;-32
2023/06/16 10:04:48;;;;;;;6.20;4.20;;;;;;;-128.00;-1.00;-1.00;18481;294;7505910;-32
2023/06/16 10:07:15;;;;;;;3.60;2.30;;;;;;;-128.00;-1.00;-1.00;18483;334;7505428;-32
2023/06/16 10:09:46;;;;;;;2.40;2.10;;;;;;;-128.00;-1.00;-1.00;18498;294;7504300;-36
2023/06/16 10:12:12;;;;;;;2.40;1.90;;;;;;;-128.00;-1.00;-1.00;18500;294;7504300;-32
2023/06/16 10:14:38;;;;;;;1.80;1.70;;;;;;;-128.00;-1.00;-1.00;18478;295;7505919;-34
2023/06/16 10:17:05;;;;;;;3.50;2.30;;;;;;;-128.00;-1.00;-1.00;18877;294;7504627;-36
2023/06/16 10:19:30;;;;;;;2.20;1.80;;;;;;;-128.00;-1.00;-1.00;18475;294;7506172;-32
2023/06/16 10:21:56;;;;;;;3.10;1.70;;;;;;;-128.00;-1.00;-1.00;18486;293;7505246;-33
2023/06/16 10:24:22;;;;;;;1.20;1.10;;;;;;;-128.00;-1.00;-1.00;18492;293;7506688;-36
2023/06/16 10:26:48;;;;;;;1.60;1.50;;;;;;;-128.00;-1.00;-1.00;18504;293;7505595;-36
2023/06/16 10:29:16;;;;;;;1.90;1.70;;;;;;;-128.00;-1.00;-1.00;18498;293;7504932;-32
2023/06/16 10:31:45;;;;;;;7.20;2.00;;;;;;;-128.00;-1.00;-1.00;18512;293;7504566;-33
2023/06/16 10:34:19;;;;;;;2.20;1.70;;;;;;;-128.00;-1.00;-1.00;18505;293;7505080;-32
2023/06/16 10:36:45;;;;;;;2.50;1.80;;;;;;;-128.00;-1.00;-1.00;18538;293;7504556;-32
2023/06/16 10:39:16;;;;;;;1.40;1.30;;;;;;;-128.00;-1.00;-1.00;18517;293;7506198;-32
2023/06/16 10:42:01;;;;;;;1.70;1.60;;;;;;;-128.00;-1.00;-1.00;18487;293;7504344;-35
2023/06/16 10:44:28;;;;;;;1.50;1.40;;;;;;;-128.00;-1.00;-1.00;18506;293;7504573;-31
2023/06/16 10:47:29;;;;;;;2.40;2.20;;;;;;;-128.00;-1.00;-1.00;18532;293;7504249;-35
2023/06/16 10:50:00;;;;;;;1.80;1.50;;;;;;;-128.00;-1.00;-1.00;18537;293;7505895;-31
2023/06/16 10:52:33;;;;;;;1.70;1.60;;;;;;;-128.00;-1.00;-1.00;18494;310;7505050;-31
2023/06/16 10:55:17;;;;;;;4.40;2.30;;;;;;;-128.00;-1.00;-1.00;18497;293;7504202;-36
2023/06/16 10:57:43;;;;;;;2.50;1.50;;;;;;;-128.00;-1.00;-1.00;18517;293;7505303;-32
2023/06/16 11:00:14;;;;;;;3.10;1.90;;;;;;;-128.00;-1.00;-1.00;18509;293;7505981;-32
2023/06/16 11:02:52;;;;;;;5.20;1.00;;;;;;;-128.00;-1.00;-1.00;18543;293;7505920;-36
2023/06/16 11:05:22;;;;;;;2.10;1.70;;;;;;;-128.00;-1.00;-1.00;18528;293;7504831;-32
2023/06/16 11:08:16;;;;;;;1.70;1.50;;;;;;;-128.00;-1.00;-1.00;18526;293;7504615;-32
2023/06/16 11:10:50;;;;;;;1.60;1.50;;;;;;;-128.00;-1.00;-1.00;18474;294;7505120;-32
2023/06/16 11:13:16;;;;;;;0.80;0.70;;;;;;;-128.00;-1.00;-1.00;18496;293;7504328;-35
2023/06/16 11:15:42;;;;;;;1.10;1.00;;;;;;;-128.00;-1.00;-1.00;18493;293;7504846;-35
2023/06/16 11:18:08;;;;;;;1.90;1.50;;;;;;;-128.00;-1.00;-1.00;18499;293;7505743;-35
2023/06/16 11:20:35;;;;;;;1.10;1.00;;;;;;;-128.00;-1.00;-1.00;18513;293;7506071;-36
2023/06/16 11:23:04;;;;;;;2.90;1.60;;;;;;;-128.00;-1.00;-1.00;18511;293;7505960;-36
2023/06/16 11:25:30;;;;;;;1.30;1.20;;;;;;;-128.00;-1.00;-1.00;18506;293;7504671;-36
2023/06/16 11:27:56;;;;;;;2.20;1.30;;;;;;;-128.00;-1.00;-1.00;18528;293;7504924;-37
2023/06/16 11:30:22;;;;;;;1.60;1.50;;;;;;;-128.00;-1.00;-1.00;18518;293;7504587;-32
2023/06/16 11:32:48;;;;;;;1.10;1.00;;;;;;;-128.00;-1.00;-1.00;18506;293;7504344;-32
2023/06/16 11:35:13;;;;;;;3.90;1.80;;;;;;;-128.00;-1.00;-1.00;18462;288;7506356;-35
2023/06/16 11:37:50;;;;;;;1.50;1.40;;;;;;;-128.00;-1.00;-1.00;18479;346;7504899;-31
2023/06/16 11:40:24;;;;;;;1.80;1.60;;;;;;;-128.00;-1.00;-1.00;18501;293;7505239;-31
2023/06/16 11:43:00;;;;;;;1.40;1.30;;;;;;;-128.00;-1.00;-1.00;18543;293;7504702;-31
2023/06/16 11:45:27;;;;;;;3.70;1.60;;;;;;;-128.00;-1.00;-1.00;18498;286;7504724;-31
2023/06/16 11:47:55;;;;;;;1.40;1.30;;;;;;;-128.00;-1.00;-1.00;18525;293;7505817;-31
2023/06/16 11:50:21;;;;;;;2.80;1.80;;;;;;;-128.00;-1.00;-1.00;18513;293;7504595;-35
2023/06/16 11:52:47;;;;;;;2.30;1.50;;;;;;;-128.00;-1.00;-1.00;18478;333;7506627;-34
2023/06/16 11:55:13;;;;;;;1.70;1.40;;;;;;;-128.00;-1.00;-1.00;18503;293;7504979;-31
2023/06/16 11:57:39;;;;;;;2.00;1.80;;;;;;;-128.00;-1.00;-1.00;18499;293;7505254;-32
2023/06/16 12:00:06;;;;;;;1.80;1.40;;;;;;;-128.00;-1.00;-1.00;18497;293;7505390;-35
2023/06/16 12:02:32;;;;;;;8.90;1.80;;;;;;;-128.00;-1.00;-1.00;18515;293;7505764;-35
2023/06/16 12:04:58;;;;;;;1.60;1.20;;;;;;;-128.00;-1.00;-1.00;18484;293;7504917;-35
2023/06/16 12:07:24;;;;;;;1.50;1.30;;;;;;;-128.00;-1.00;-1.00;18900;293;7504753;-36
2023/06/16 12:09:56;;;;;;;5.70;1.90;;;;;;;-128.00;-1.00;-1.00;18914;285;7504875;-32
2023/06/16 12:12:25;;;;;;;3.30;1.90;;;;;;;-128.00;-1.00;-1.00;18514;293;7504717;-35